Time;durP1;ratioP1;P1;durP2;ratioP2;P2;SDS_P1;SDS_P2;PMS_P1;PMS_P2;Temp;Humidity;BMP_temperature;BMP_pressure;BME280_temperature;BME280_humidity;BME280_pressure;Samples;Min_cycle;Max_cycle;Signal;HPM_P1;HPM_P2
2024/04/09 00:02:11;;;;;;;26.55;8.10;;;18.30;37.20;;;;;;5342211;26;20328;-76
2024/04/09 00:04:36;;;;;;;33.87;9.23;;;18.20;39.00;;;;;;5343746;26;20377;-76
2024/04/09 00:07:02;;;;;;;29.70;10.97;;;18.20;37.90;;;;;;5343945;26;20543;-77
2024/04/09 00:09:31;;;;;;;33.70;6.65;;;18.30;36.60;;;;;;5343840;26;20360;-78
2024/04/09 00:11:58;;;;;;;26.00;5.60;;;18.20;35.20;;;;;;5344098;26;20337;-75
2024/04/09 00:14:24;;;;;;;26.05;5.50;;;18.10;34.90;;;;;;5344432;26;20766;-76
2024/04/09 00:16:53;;;;;;;26.75;5.63;;;18.00;34.90;;;;;;5346421;26;20329;-77
2024/04/09 00:19:23;;;;;;;30.38;6.65;;;18.00;35.00;;;;;;5352826;26;20325;-77
2024/04/09 00:21:52;;;;;;;26.40;5.77;;;18.00;34.80;;;;;;5358915;26;20325;-76
2024/04/09 00:24:18;;;;;;;27.75;5.60;;;17.90;33.10;;;;;;5365164;26;20325;-78
2024/04/09 00:26:44;;;;;;;27.67;5.75;;;18.10;31.70;;;;;;5365466;26;20376;-76
2024/04/09 00:29:10;;;;;;;25.23;6.00;;;18.20;30.10;;;;;;5365559;26;20376;-76
2024/04/09 00:31:36;;;;;;;22.55;5.35;;;18.60;27.80;;;;;;5353970;26;20436;-77
2024/04/09 00:34:05;;;;;;;22.95;4.90;;;18.70;28.30;;;;;;5345277;26;20344;-77
2024/04/09 00:36:33;;;;;;;31.40;5.18;;;18.80;28.00;;;;;;5343738;26;20379;-76
2024/04/09 00:39:00;;;;;;;30.00;5.63;;;18.90;28.00;;;;;;5371765;26;20340;-77
2024/04/09 00:41:26;;;;;;;29.88;5.57;;;18.90;28.60;;;;;;5372045;26;20406;-76
2024/04/09 00:43:51;;;;;;;27.92;5.45;;;18.90;28.50;;;;;;5345092;26;20336;-76
2024/04/09 00:46:19;;;;;;;28.73;5.00;;;19.00;29.40;;;;;;5347318;26;20337;-77
2024/04/09 00:48:46;;;;;;;28.02;5.60;;;19.00;30.10;;;;;;5347069;26;20369;-78
2024/04/09 00:51:15;;;;;;;25.33;5.55;;;19.10;31.00;;;;;;5347008;26;20373;-77
2024/04/09 00:53:44;;;;;;;22.20;5.25;;;18.90;31.50;;;;;;5344514;26;20377;-76
2024/04/09 00:56:11;;;;;;;33.85;5.78;;;18.90;32.30;;;;;;5346916;26;20345;-76
2024/04/09 00:58:38;;;;;;;26.05;5.18;;;18.80;33.00;;;;;;5346920;26;20406;-77
2024/04/09 01:01:04;;;;;;;23.75;5.18;;;18.70;33.70;;;;;;5346874;26;20344;-76
2024/04/09 01:03:30;;;;;;;27.67;5.50;;;18.60;34.40;;;;;;5347686;26;20957;-76
2024/04/09 01:05:56;;;;;;;25.85;5.38;;;18.80;35.30;;;;;;5349500;26;20336;-77
2024/04/09 01:11:44;;;;;;;22.83;5.32;;;18.40;36.30;;;;;;5347543;26;20866;-76
2024/04/09 01:14:09;;;;;;;25.10;5.80;;;18.20;37.20;;;;;;5373853;26;20336;-77
2024/04/09 01:16:35;;;;;;;30.50;5.05;;;18.10;38.20;;;;;;5346831;26;20386;-75
2024/04/09 01:19:01;;;;;;;26.73;5.50;;;17.90;38.30;;;;;;5345794;26;20426;-76
2024/04/09 01:21:26;;;;;;;30.60;4.90;;;17.90;38.60;;;;;;5373551;26;20328;-77
2024/04/09 01:23:53;;;;;;;21.02;4.60;;;17.70;39.40;;;;;;5345803;26;20860;-76
2024/04/09 01:26:19;;;;;;;24.90;5.18;;;17.60;39.80;;;;;;5346068;26;20329;-75
2024/04/09 01:28:46;;;;;;;25.37;5.60;;;17.80;41.00;;;;;;5346011;26;20423;-76
2024/04/09 01:31:15;;;;;;;26.17;5.00;;;17.40;41.30;;;;;;5345960;26;20341;-75
2024/04/09 01:33:45;;;;;;;27.55;5.00;;;17.40;41.60;;;;;;5345884;26;20363;-77
2024/04/09 01:36:11;;;;;;;25.53;5.30;;;17.30;42.50;;;;;;5346170;26;20329;-78
2024/04/09 01:38:37;;;;;;;33.53;5.97;;;17.30;42.70;;;;;;5345702;26;20859;-75
2024/04/09 01:41:03;;;;;;;29.70;5.47;;;17.20;43.30;;;;;;5345145;26;20887;-75
2024/04/09 01:43:29;;;;;;;24.95;5.28;;;17.20;43.70;;;;;;5372399;26;20329;-75
2024/04/09 01:45:54;;;;;;;19.73;5.07;;;17.10;44.50;;;;;;5345171;26;20344;-76
2024/04/09 01:48:22;;;;;;;29.77;5.20;;;17.00;45.30;;;;;;5345526;26;20433;-77
2024/04/09 01:50:47;;;;;;;20.90;4.53;;;17.00;45.60;;;;;;5345648;26;20514;-77
2024/04/09 01:53:13;;;;;;;23.97;5.73;;;17.00;46.00;;;;;;5345294;26;20329;-77
2024/04/09 01:55:38;;;;;;;17.60;4.90;;;17.10;45.60;;;;;;5345040;26;20433;-76
2024/04/09 01:58:07;;;;;;;19.40;5.38;;;17.20;45.30;;;;;;5345913;26;20859;-76
2024/04/09 02:00:35;;;;;;;19.10;5.88;;;17.20;45.40;;;;;;5372990;26;20374;-76
2024/04/09 02:03:01;;;;;;;28.10;5.60;;;17.30;45.10;;;;;;5344837;26;20823;-77
2024/04/09 02:05:27;;;;;;;20.90;4.72;;;17.10;46.30;;;;;;5345054;26;20329;-76
2024/04/09 02:07:52;;;;;;;30.65;5.18;;;17.00;46.70;;;;;;5344645;26;20321;-76
2024/04/09 02:10:18;;;;;;;22.77;5.10;;;16.90;47.60;;;;;;5372068;26;20356;-77
2024/04/09 02:12:44;;;;;;;22.70;5.22;;;;;;;;;;5344378;26;20341;-77
2024/04/09 02:15:12;;;;;;;24.50;5.15;;;16.70;48.30;;;;;;5344486;26;20360;-78
2024/04/09 02:17:38;;;;;;;21.42;5.00;;;16.60;49.90;;;;;;5344805;26;20882;-77
2024/04/09 02:20:04;;;;;;;20.60;5.45;;;16.50;50.70;;;;;;5345062;26;20329;-76
2024/04/09 02:22:30;;;;;;;27.00;4.70;;;16.50;51.70;;;;;;5344589;26;20433;-76
2024/04/09 02:24:55;;;;;;;26.30;5.20;;;16.40;52.10;;;;;;5344870;26;20337;-73
2024/04/09 02:27:21;;;;;;;19.65;4.28;;;16.40;52.70;;;;;;5345145;26;20352;-77
2024/04/09 02:29:47;;;;;;;16.65;5.05;;;16.30;54.00;;;;;;5344928;26;20388;-76
2024/04/09 02:32:12;;;;;;;21.63;4.30;;;16.30;53.90;;;;;;5350284;26;20364;-76
2024/04/09 02:34:38;;;;;;;19.05;5.30;;;16.30;54.00;;;;;;5358899;26;20321;-78
2024/04/09 02:37:04;;;;;;;17.93;4.20;;;16.20;54.60;;;;;;5359727;26;20678;-76
2024/04/09 02:39:31;;;;;;;27.43;4.77;;;16.20;54.20;;;;;;5361754;26;20372;-77
2024/04/09 02:41:57;;;;;;;21.80;5.00;;;16.30;53.60;;;;;;5362314;26;20333;-77
2024/04/09 02:44:22;;;;;;;24.10;4.47;;;16.20;54.10;;;;;;5360329;26;20363;-77
2024/04/09 02:46:49;;;;;;;17.80;4.70;;;16.10;55.00;;;;;;5357113;26;20340;-78
2024/04/09 02:49:15;;;;;;;12.48;3.90;;;16.00;55.40;;;;;;5355103;26;20321;-75
2024/04/09 02:51:41;;;;;;;16.40;4.35;;;15.90;56.50;;;;;;5347810;26;20420;-77
2024/04/09 02:54:07;;;;;;;13.38;4.80;;;18.20;59.00;;;;;;5345714;26;20337;-76
2024/04/09 02:56:34;;;;;;;15.65;4.80;;;15.60;58.40;;;;;;5346378;26;20357;-77
2024/04/09 02:59:00;;;;;;;29.58;5.43;;;15.60;59.70;;;;;;5345775;26;20822;-77
2024/04/09 03:01:25;;;;;;;16.90;4.60;;;15.50;60.50;;;;;;5346180;26;20380;-76
2024/04/09 03:03:51;;;;;;;23.35;5.25;;;15.40;61.60;;;;;;5345248;26;20355;-76
2024/04/09 03:06:17;;;;;;;20.93;4.23;;;15.40;62.70;;;;;;5345139;26;20450;-77
2024/04/09 03:08:43;;;;;;;25.47;5.37;;;15.40;63.40;;;;;;5344017;26;20701;-76
2024/04/09 03:11:18;;;;;;;23.13;5.65;;;15.30;63.90;;;;;;5344212;26;20842;-76
2024/04/09 03:13:46;;;;;;;28.25;6.00;;;15.30;64.40;;;;;;5343901;26;20336;-75
2024/04/09 03:16:13;;;;;;;30.00;8.13;;;15.30;65.10;;;;;;5343861;26;20329;-77
2024/04/09 03:18:39;;;;;;;33.08;8.85;;;15.30;65.80;;;;;;5344315;26;20341;-75
2024/04/09 03:21:05;;;;;;;23.40;6.55;;;15.40;65.70;;;;;;5343749;26;20337;-76
2024/04/09 03:23:31;;;;;;;17.20;5.80;;;15.50;64.50;;;;;;5344171;26;20364;-76
2024/04/09 03:25:56;;;;;;;26.03;5.73;;;15.50;64.50;;;;;;5344138;26;20367;-76
2024/04/09 03:28:22;;;;;;;24.60;4.60;;;15.50;65.10;;;;;;5371764;26;20344;-76
2024/04/09 03:31:01;;;;;;;27.33;5.32;;;15.70;62.50;;;;;;5343715;26;20340;-77
2024/04/09 03:33:27;;;;;;;17.73;5.00;;;15.80;62.70;;;;;;5343920;26;20365;-76
2024/04/09 03:35:55;;;;;;;24.73;5.75;;;15.90;61.60;;;;;;5343981;26;20819;-77
2024/04/09 03:38:21;;;;;;;18.50;5.03;;;16.00;60.40;;;;;;5344099;26;20325;-76
2024/04/09 03:41:03;;;;;;;21.53;5.20;;;15.90;60.30;;;;;;5342488;26;20385;-75
2024/04/09 03:43:29;;;;;;;17.40;5.80;;;15.90;60.40;;;;;;5343973;26;20365;-75
2024/04/09 03:46:07;;;;;;;24.70;5.47;;;16.00;59.70;;;;;;5344506;26;20793;-77
2024/04/09 03:48:37;;;;;;;19.63;4.90;;;16.10;58.40;;;;;;5344599;26;20701;-77
2024/04/09 03:51:04;;;;;;;19.25;4.70;;;16.20;57.90;;;;;;5343143;26;20333;-76
2024/04/09 03:53:29;;;;;;;20.35;5.35;;;16.20;57.20;;;;;;5343401;26;20385;-76
2024/04/09 03:55:59;;;;;;;18.47;4.67;;;16.30;56.30;;;;;;5344284;26;20329;-75
2024/04/09 03:58:34;;;;;;;19.40;5.38;;;16.30;55.60;;;;;;5344421;26;20861;-76
2024/04/09 04:01:02;;;;;;;15.48;4.07;;;16.30;55.50;;;;;;5345415;26;20336;-75
2024/04/09 04:03:29;;;;;;;16.77;4.10;;;16.30;54.90;;;;;;5345040;26;20684;-75
2024/04/09 04:05:55;;;;;;;15.18;3.63;;;16.40;54.30;;;;;;5344236;26;20325;-75
2024/04/09 04:08:23;;;;;;;12.52;3.42;;;16.40;54.10;;;;;;5343353;26;20731;-76
2024/04/09 04:10:56;;;;;;;16.40;3.63;;;16.40;54.30;;;;;;5341115;26;20362;-75
2024/04/09 04:13:24;;;;;;;16.90;3.30;;;16.30;55.10;;;;;;5343285;26;20384;-76
2024/04/09 04:15:56;;;;;;;10.18;3.40;;;16.30;55.40;;;;;;5343460;26;20886;-75
2024/04/09 04:18:21;;;;;;;19.17;4.00;;;16.20;56.10;;;;;;5342954;26;20333;-78
2024/04/09 04:20:51;;;;;;;18.50;3.80;;;16.10;56.90;;;;;;5343364;26;20519;-78
2024/04/09 04:23:17;;;;;;;17.23;3.70;;;16.10;58.10;;;;;;5342974;26;20333;-76
2024/04/09 04:25:42;;;;;;;10.82;3.28;;;16.10;57.50;;;;;;5343209;26;20356;-77
2024/04/09 04:28:08;;;;;;;17.15;3.10;;;16.20;56.20;;;;;;5343375;26;20328;-76
2024/04/09 04:30:35;;;;;;;19.15;4.10;;;16.20;56.80;;;;;;5342381;26;20422;-76
2024/04/09 04:33:04;;;;;;;15.00;3.00;;;16.20;57.30;;;;;;5343241;26;20408;-76
2024/04/09 04:35:29;;;;;;;13.00;3.13;;;16.10;57.80;;;;;;5343286;26;20475;-76
2024/04/09 04:37:55;;;;;;;9.90;3.23;;;16.10;57.20;;;;;;5343144;26;20863;-77
2024/04/09 04:40:20;;;;;;;12.07;3.07;;;16.00;58.50;;;;;;5343645;26;20937;-75
2024/04/09 04:42:46;;;;;;;10.93;3.17;;;16.00;57.90;;;;;;5346087;26;20929;-77
2024/04/09 04:45:12;;;;;;;6.80;2.80;;;16.00;58.40;;;;;;5347030;26;20416;-77
2024/04/09 04:47:37;;;;;;;9.60;2.63;;;15.90;59.10;;;;;;5375902;26;20376;-76
2024/04/09 04:50:03;;;;;;;7.70;3.17;;;15.90;59.00;;;;;;5347976;26;20341;-78
2024/04/09 04:52:29;;;;;;;13.57;3.83;;;15.90;59.80;;;;;;5347537;26;20381;-78
2024/04/09 04:54:54;;;;;;;7.90;2.60;;;15.90;60.00;;;;;;5347635;26;20352;-78
2024/04/09 04:57:22;;;;;;;14.67;2.87;;;15.90;59.50;;;;;;5347419;26;20333;-79
2024/04/09 04:59:48;;;;;;;8.30;2.83;;;15.80;61.40;;;;;;5347438;26;20389;-74
2024/04/09 05:02:14;;;;;;;9.32;3.55;;;15.90;61.40;;;;;;5348511;26;20338;-78
2024/04/09 05:04:39;;;;;;;8.02;3.10;;;15.80;61.90;;;;;;5351327;26;20693;-77
2024/04/09 05:07:06;;;;;;;10.98;3.10;;;15.80;61.80;;;;;;5348430;26;20340;-78
2024/04/09 05:09:33;;;;;;;11.10;2.60;;;15.80;61.10;;;;;;5348740;26;20390;-79
2024/04/09 05:11:59;;;;;;;17.25;3.25;;;15.80;61.60;;;;;;5349754;26;20420;-79
2024/04/09 05:14:25;;;;;;;6.75;2.75;;;15.90;60.90;;;;;;5355989;26;20359;-78
2024/04/09 05:16:51;;;;;;;5.40;2.00;;;15.80;61.70;;;;;;5353225;26;20728;-78
2024/04/09 05:19:16;;;;;;;8.65;2.80;;;15.80;61.70;;;;;;5348160;26;20344;-77
2024/04/09 05:21:42;;;;;;;11.27;3.00;;;15.80;63.40;;;;;;5352596;26;20340;-78
2024/04/09 05:24:08;;;;;;;8.37;2.67;;;15.80;64.90;;;;;;5350698;26;20341;-76
2024/04/09 05:26:33;;;;;;;7.00;2.50;;;15.80;65.40;;;;;;5350551;26;20372;-77
2024/04/09 05:28:59;;;;;;;7.77;2.73;;;15.80;67.70;;;;;;5351008;26;20345;-77
2024/04/09 05:31:25;;;;;;;11.07;2.90;;;15.70;71.10;;;;;;5353545;26;20340;-77
2024/04/09 05:33:50;;;;;;;8.10;2.77;;;15.60;70.20;;;;;;5348059;26;20955;-75
2024/04/09 05:36:16;;;;;;;8.73;2.60;;;15.60;72.50;;;;;;5345308;26;20361;-73
2024/04/09 05:38:41;;;;;;;7.83;3.10;;;15.60;73.00;;;;;;5347898;26;20443;-75
2024/04/09 05:41:11;;;;;;;7.37;2.40;;;15.70;72.30;;;;;;5347019;26;20352;-75
2024/04/09 05:43:36;;;;;;;10.30;2.17;;;15.70;72.80;;;;;;5347240;26;20359;-74
2024/04/09 05:46:02;;;;;;;4.20;2.23;;;15.60;72.60;;;;;;5346703;26;20333;-74
2024/04/09 05:48:27;;;;;;;3.13;1.93;;;15.60;70.40;;;;;;5346183;26;20448;-72
2024/04/09 05:50:53;;;;;;;6.67;2.10;;;15.70;69.20;;;;;;5344790;26;20512;-74
2024/04/09 05:53:18;;;;;;;8.43;2.90;;;15.70;70.80;;;;;;5345492;26;20870;-74
2024/04/09 05:55:56;;;;;;;7.20;2.50;;;15.70;69.20;;;;;;5344850;26;20340;-74
2024/04/09 05:58:22;;;;;;;6.88;2.75;;;15.70;69.10;;;;;;5326707;26;20785;-72
2024/04/09 06:00:51;;;;;;;6.23;2.90;;;15.70;69.80;;;;;;5345287;26;20417;-73
2024/04/09 06:03:16;;;;;;;12.27;2.72;;;15.70;67.30;;;;;;5311258;27;20751;-72
2024/04/09 06:05:42;;;;;;;8.57;2.67;;;15.70;66.80;;;;;;5324997;26;20336;-74
2024/04/09 06:08:08;;;;;;;6.77;2.60;;;15.70;67.30;;;;;;5345364;26;20379;-74
2024/04/09 06:10:33;;;;;;;7.38;2.40;;;15.50;66.10;;;;;;5344841;26;20711;-73
2024/04/09 06:13:00;;;;;;;7.43;2.38;;;15.50;66.90;;;;;;5344765;26;20731;-74
2024/04/09 06:15:25;;;;;;;6.80;2.00;;;15.40;67.00;;;;;;5346529;26;20428;-72
2024/04/09 06:17:51;;;;;;;5.20;1.80;;;15.20;69.20;;;;;;5347815;26;20348;-73
2024/04/09 06:20:17;;;;;;;3.97;2.17;;;15.20;69.50;;;;;;5345736;26;20905;-73
2024/04/09 06:22:42;;;;;;;3.60;2.00;;;15.00;68.90;;;;;;5349263;26;20399;-73
2024/04/09 06:25:08;;;;;;;4.10;2.20;;;14.90;71.50;;;;;;5325165;26;20352;-72
2024/04/09 06:27:33;;;;;;;3.10;2.60;;;14.80;73.90;;;;;;5336183;26;20345;-73
2024/04/09 06:29:59;;;;;;;5.82;3.20;;;14.70;75.70;;;;;;5344907;26;20348;-73
2024/04/09 06:32:25;;;;;;;7.50;2.80;;;14.70;76.60;;;;;;5345091;26;20370;-72
2024/04/09 06:34:50;;;;;;;4.63;2.23;;;14.80;74.90;;;;;;5345939;26;20348;-73
2024/04/09 06:37:16;;;;;;;11.50;3.20;;;14.60;73.80;;;;;;5344845;26;20442;-73
2024/04/09 06:39:42;;;;;;;6.53;2.80;;;14.70;75.50;;;;;;5344839;26;20352;-72
2024/04/09 06:42:07;;;;;;;3.80;2.30;;;14.70;73.70;;;;;;5344026;26;20377;-74
2024/04/09 06:44:33;;;;;;;5.30;2.73;;;14.70;75.60;;;;;;5350110;26;20413;-74
2024/04/09 06:46:59;;;;;;;3.63;2.00;;;14.70;74.90;;;;;;5349951;26;20823;-78
2024/04/09 06:49:25;;;;;;;3.65;1.55;;;14.90;60.80;;;;;;5353139;26;20481;-77
2024/04/09 06:51:50;;;;;;;3.30;1.50;;;14.60;57.80;;;;;;5349964;26;20429;-77
2024/04/09 06:54:16;;;;;;;2.50;1.40;;;14.60;59.60;;;;;;5348682;26;20401;-78
2024/04/09 06:56:42;;;;;;;2.80;1.30;;;14.40;58.60;;;;;;5347824;26;20416;-79
2024/04/09 06:59:07;;;;;;;4.10;1.60;;;14.30;58.40;;;;;;5350093;26;20340;-77
2024/04/09 07:01:33;;;;;;;4.97;1.80;;;14.30;59.30;;;;;;5350094;26;20336;-78
2024/04/09 07:03:58;;;;;;;4.83;1.60;;;14.50;61.50;;;;;;5349892;26;20820;-78
2024/04/09 07:06:24;;;;;;;2.90;1.10;;;14.40;55.30;;;;;;5351058;26;20345;-77
2024/04/09 07:08:50;;;;;;;3.10;1.38;;;;;;;;;;5351190;26;20333;-78
2024/04/09 07:11:16;;;;;;;5.15;1.20;;;14.00;48.60;;;;;;5349897;26;20356;-77
2024/04/09 07:13:41;;;;;;;5.90;1.30;;;13.90;49.80;;;;;;5349807;26;20340;-78
2024/04/09 07:16:08;;;;;;;10.07;1.77;;;13.90;49.90;;;;;;5349234;26;20345;-77
2024/04/09 07:18:34;;;;;;;6.40;1.77;;;13.90;49.50;;;;;;5347801;26;20345;-78
2024/04/09 07:21:00;;;;;;;3.83;1.40;;;13.90;50.00;;;;;;5352558;26;20454;-79
2024/04/09 07:23:26;;;;;;;2.97;1.45;;;13.90;50.60;;;;;;5348350;26;20711;-79
2024/04/09 07:25:52;;;;;;;5.47;1.75;;;;;;;;;;5350455;26;20491;-78
2024/04/09 07:28:17;;;;;;;4.60;2.05;;;13.90;49.60;;;;;;5348361;26;20381;-79
2024/04/09 07:30:43;;;;;;;8.05;1.80;;;13.90;48.70;;;;;;5350163;26;20514;-77
2024/04/09 07:33:08;;;;;;;5.25;1.80;;;13.90;48.80;;;;;;5350641;26;20345;-78
2024/04/09 07:35:36;;;;;;;5.73;2.00;;;13.80;48.10;;;;;;5350552;26;20329;-77
2024/04/09 07:38:02;;;;;;;6.15;2.33;;;13.80;48.70;;;;;;5352418;26;20815;-77
2024/04/09 07:40:28;;;;;;;6.28;1.75;;;13.80;47.60;;;;;;5352755;26;20333;-77
2024/04/09 07:42:55;;;;;;;8.50;2.45;;;13.80;49.40;;;;;;5352191;26;20373;-78
2024/04/09 07:45:20;;;;;;;8.07;2.70;;;13.90;49.50;;;;;;5349516;26;20394;-79
2024/04/09 07:47:49;;;;;;;5.67;2.60;;;14.00;48.30;;;;;;5349149;26;20827;-76
2024/04/09 07:50:15;;;;;;;5.57;1.70;;;13.90;48.90;;;;;;5347171;26;20349;-78
2024/04/09 07:52:41;;;;;;;6.20;1.60;;;14.00;47.00;;;;;;5348727;26;20699;-77
2024/04/09 07:55:11;;;;;;;7.13;1.70;;;14.00;47.20;;;;;;5353999;26;20416;-77
2024/04/09 07:57:40;;;;;;;4.85;1.60;;;14.20;46.20;;;;;;5355899;26;20434;-77
2024/04/09 08:00:13;;;;;;;3.95;1.30;;;14.30;45.40;;;;;;5361397;26;20730;-78
2024/04/09 08:02:45;;;;;;;6.13;1.43;;;14.50;44.50;;;;;;5351842;26;20750;-78
2024/04/09 08:05:12;;;;;;;6.45;1.50;;;16.80;44.70;;;;;;5354473;26;20372;-78
2024/04/09 08:07:39;;;;;;;4.53;1.50;;;14.90;38.60;;;;;;5357474;26;20371;-78
2024/04/09 08:10:11;;;;;;;5.47;1.30;;;14.80;39.20;;;;;;5358214;26;20432;-78
2024/04/09 08:12:54;;;;;;;8.32;1.60;;;15.00;38.90;;;;;;5352455;26;20389;-79
2024/04/09 08:15:21;;;;;;;4.75;1.23;;;15.20;39.10;;;;;;5354722;26;20344;-78
2024/04/09 08:17:48;;;;;;;14.13;1.83;;;15.40;37.00;;;;;;5351078;26;20332;-77
2024/04/09 08:20:15;;;;;;;7.53;1.63;;;15.80;35.00;;;;;;5349972;26;20446;-78
2024/04/09 08:22:44;;;;;;;6.93;1.50;;;15.80;34.20;;;;;;5350217;26;20692;-79
2024/04/09 08:25:10;;;;;;;7.43;1.70;;;15.80;34.60;;;;;;5353168;26;20433;-76
2024/04/09 08:27:40;;;;;;;6.63;1.65;;;15.60;34.60;;;;;;5349425;26;20861;-78
2024/04/09 08:30:13;;;;;;;8.57;1.50;;;15.60;34.60;;;;;;5350828;26;20329;-77
2024/04/09 08:32:41;;;;;;;6.07;1.55;;;15.90;33.90;;;;;;5346230;26;20381;-82
2024/04/09 08:35:07;;;;;;;7.53;1.50;;;15.60;33.70;;;;;;5347307;26;20377;-78
2024/04/09 08:37:32;;;;;;;7.30;1.60;;;15.60;34.40;;;;;;5349167;26;20935;-77
2024/04/09 08:39:59;;;;;;;5.68;1.50;;;15.40;31.60;;;;;;5348276;26;20439;-79
2024/04/09 08:42:28;;;;;;;5.30;1.60;;;15.80;31.50;;;;;;5349017;26;20442;-79
2024/04/09 08:44:58;;;;;;;6.78;1.50;;;15.70;30.90;;;;;;5349484;26;20333;-78
2024/04/09 08:47:24;;;;;;;6.50;1.55;;;15.60;30.70;;;;;;5348970;26;20373;-78
2024/04/09 08:49:53;;;;;;;10.85;1.85;;;15.70;30.80;;;;;;5349137;26;20348;-80
2024/04/09 08:52:20;;;;;;;9.48;2.40;;;15.70;29.60;;;;;;5349325;26;20456;-77
2024/04/09 08:54:45;;;;;;;5.13;1.50;;;15.70;30.10;;;;;;5350271;26;20348;-78
2024/04/09 08:57:11;;;;;;;3.33;1.20;;;15.80;30.30;;;;;;5345559;26;20831;-77
2024/04/09 08:59:37;;;;;;;7.45;1.60;;;;;;;;;;5347141;26;20404;-79
2024/04/09 09:02:06;;;;;;;5.57;1.20;;;15.70;30.20;;;;;;5349891;26;20871;-78
2024/04/09 09:04:39;;;;;;;7.05;1.85;;;15.60;31.40;;;;;;5349908;26;20344;-78
2024/04/09 09:07:13;;;;;;;8.65;1.60;;;15.50;32.60;;;;;;5354748;26;20467;-78
2024/04/09 09:09:39;;;;;;;5.90;1.60;;;15.40;31.50;;;;;;5353107;26;20380;-79
2024/04/09 09:12:08;;;;;;;5.22;1.38;;;15.70;32.10;;;;;;5356328;26;20345;-77
2024/04/09 09:14:33;;;;;;;6.22;1.30;;;15.50;27.20;;;;;;5365153;26;20337;-78
2024/04/09 09:17:06;;;;;;;6.90;1.42;;;15.40;27.40;;;;;;5364510;26;20372;-77
2024/04/09 09:19:34;;;;;;;4.53;1.40;;;15.40;26.40;;;;;;5366348;26;20337;-78
2024/04/09 09:22:06;;;;;;;5.30;1.30;;;15.30;24.60;;;;;;5364195;26;20344;-78
2024/04/09 09:24:34;;;;;;;16.63;1.30;;;15.10;25.10;;;;;;5363374;26;20325;-77
2024/04/09 09:27:10;;;;;;;4.93;1.40;;;15.00;25.70;;;;;;5364078;26;20348;-78
2024/04/09 09:29:36;;;;;;;8.40;1.60;;;14.90;26.80;;;;;;5356871;26;20377;-77
2024/04/09 09:32:02;;;;;;;7.82;1.65;;;14.90;26.50;;;;;;5352521;26;20348;-79
2024/04/09 09:34:40;;;;;;;13.02;1.45;;;14.90;26.60;;;;;;5352764;26;20329;-78
2024/04/09 09:37:10;;;;;;;8.27;1.48;;;14.40;27.60;;;;;;5356048;26;20414;-77
2024/04/09 09:39:40;;;;;;;7.85;1.40;;;14.90;27.40;;;;;;5360670;26;20349;-77
2024/04/09 09:42:12;;;;;;;6.30;1.20;;;14.40;27.50;;;;;;5359732;26;20774;-77
2024/04/09 09:44:42;;;;;;;3.45;1.30;;;14.30;27.30;;;;;;5352066;26;20685;-79
2024/04/09 09:47:08;;;;;;;5.82;1.40;;;14.40;28.80;;;;;;5350960;26;20359;-79
2024/04/09 09:49:35;;;;;;;8.63;1.40;;;14.50;28.20;;;;;;5349707;26;20392;-79
2024/04/09 09:52:02;;;;;;;7.10;1.20;;;14.90;27.20;;;;;;5350652;26;20344;-79
2024/04/09 09:54:27;;;;;;;7.97;1.40;;;15.20;26.50;;;;;;5350561;26;20333;-79
2024/04/09 09:57:00;;;;;;;6.13;2.00;;;15.60;25.20;;;;;;5350974;26;20401;-79
2024/04/09 09:59:31;;;;;;;10.52;1.90;;;16.00;24.80;;;;;;5352572;26;20344;-80
2024/04/09 10:02:00;;;;;;;7.05;1.60;;;16.60;23.80;;;;;;5351670;26;20432;-80
2024/04/09 10:04:25;;;;;;;3.40;1.55;;;16.80;22.70;;;;;;5351122;26;20333;-79
2024/04/09 10:07:03;;;;;;;8.25;1.30;;;17.20;21.20;;;;;;5351125;26;20358;-78
2024/04/09 10:09:42;;;;;;;6.50;1.20;;;17.50;21.20;;;;;;5350003;26;20348;-78
2024/04/09 10:12:28;;;;;;;7.03;1.67;;;17.60;19.90;;;;;;5351124;26;20348;-78
2024/04/09 10:15:03;;;;;;;10.02;2.10;;;18.00;20.10;;;;;;5350919;26;20341;-79
2024/04/09 10:17:52;;;;;;;6.55;1.30;;;17.50;19.90;;;;;;5347347;26;20440;-79
2024/04/09 10:20:31;;;;;;;4.28;1.23;;;17.30;19.90;;;;;;5349259;26;20367;-79
2024/04/09 10:23:02;;;;;;;3.92;1.23;;;17.20;20.50;;;;;;5348559;26;20407;-80
2024/04/09 10:25:31;;;;;;;7.17;1.40;;;17.40;19.50;;;;;;5351943;26;20854;-77
2024/04/09 10:28:02;;;;;;;10.30;1.40;;;17.20;19.40;;;;;;5350197;26;20376;-77
2024/04/09 10:30:29;;;;;;;4.22;1.30;;;17.30;19.50;;;;;;5354245;26;20692;-79
2024/04/09 10:32:56;;;;;;;4.10;1.40;;;17.20;19.40;;;;;;5354106;26;20368;-77
2024/04/09 10:35:22;;;;;;;8.13;1.60;;;17.20;19.20;;;;;;5352794;26;20453;-78
2024/04/09 10:37:48;;;;;;;9.00;1.50;;;16.90;19.60;;;;;;5350587;26;20337;-80
2024/04/09 10:40:14;;;;;;;5.20;1.40;;;16.90;19.80;;;;;;5353157;26;20333;-77
2024/04/09 10:42:39;;;;;;;7.10;1.60;;;17.00;20.00;;;;;;5350644;26;20385;-80
2024/04/09 10:45:06;;;;;;;4.90;1.50;;;17.10;20.00;;;;;;5351482;26;20461;-78
2024/04/09 10:47:32;;;;;;;9.75;1.40;;;17.20;20.00;;;;;;5352785;26;20396;-80
2024/04/09 10:49:58;;;;;;;7.43;1.73;;;17.20;20.00;;;;;;5348598;26;20389;-78
2024/04/09 10:52:24;;;;;;;8.02;1.70;;;17.00;20.20;;;;;;5349947;26;20365;-78
2024/04/09 10:54:50;;;;;;;8.20;1.70;;;16.80;21.10;;;;;;5349754;26;20333;-79
2024/04/09 10:57:15;;;;;;;6.50;1.50;;;16.80;21.80;;;;;;5334316;26;20372;-78
2024/04/09 10:59:41;;;;;;;9.80;2.00;;;16.70;22.20;;;;;;5346286;26;20340;-79
2024/04/09 11:02:09;;;;;;;5.53;1.70;;;16.80;21.30;;;;;;5347147;26;20431;-77
2024/04/09 11:04:36;;;;;;;7.20;1.50;;;17.20;19.70;;;;;;5347708;26;20348;-73
2024/04/09 11:07:03;;;;;;;5.25;1.50;;;17.20;18.70;;;;;;5347373;26;20352;-77
2024/04/09 11:09:29;;;;;;;7.88;2.00;;;17.30;18.10;;;;;;5345223;26;20344;-77
2024/04/09 11:11:55;;;;;;;6.20;1.60;;;17.50;18.20;;;;;;5345940;26;20737;-77
2024/04/09 11:14:23;;;;;;;4.43;1.60;;;17.70;17.20;;;;;;5344749;26;21018;-76
2024/04/09 11:16:48;;;;;;;8.68;1.58;;;17.90;17.10;;;;;;5350970;26;20376;-77
2024/04/09 11:19:28;;;;;;;5.53;1.50;;;17.90;16.00;;;;;;5350571;26;20324;-76
2024/04/09 11:21:53;;;;;;;5.10;1.50;;;17.80;16.90;;;;;;5349728;26;20365;-76
2024/04/09 11:24:19;;;;;;;6.15;1.48;;;17.70;16.20;;;;;;5347209;26;20333;-78
2024/04/09 11:26:45;;;;;;;8.88;1.60;;;17.50;16.00;;;;;;5350992;26;20422;-78
2024/04/09 11:29:21;;;;;;;7.23;1.43;;;17.30;15.90;;;;;;5348729;26;21087;-76
2024/04/09 11:31:48;;;;;;;4.15;1.38;;;17.50;15.90;;;;;;5350656;26;20375;-77
2024/04/09 11:34:28;;;;;;;12.60;1.70;;;17.50;16.60;;;;;;5346379;26;20373;-77
2024/04/09 11:36:54;;;;;;;7.22;1.70;;;17.80;16.30;;;;;;5349357;26;20336;-77
2024/04/09 11:39:23;;;;;;;4.63;1.60;;;17.90;15.70;;;;;;5347360;26;20360;-76
2024/04/09 11:41:49;;;;;;;6.05;1.63;;;17.60;15.80;;;;;;5347919;26;20348;-77
2024/04/09 11:44:22;;;;;;;5.63;1.55;;;17.70;15.90;;;;;;5349072;26;20412;-77
2024/04/09 11:46:48;;;;;;;5.53;1.20;;;17.90;15.70;;;;;;5350700;26;20341;-77
2024/04/09 11:49:14;;;;;;;5.63;1.27;;;18.00;15.90;;;;;;5349682;26;20337;-75
2024/04/09 11:51:40;;;;;;;5.40;1.60;;;18.10;15.50;;;;;;5349949;26;20644;-75
2024/04/09 11:54:07;;;;;;;7.75;1.70;;;18.00;15.20;;;;;;5348957;26;20919;-78
2024/04/09 11:56:35;;;;;;;7.50;1.60;;;18.00;15.60;;;;;;5347525;26;20700;-77
2024/04/09 11:59:01;;;;;;;8.38;1.90;;;18.00;15.30;;;;;;5347696;26;20738;-76
2024/04/09 12:01:28;;;;;;;5.43;1.30;;;17.90;15.80;;;;;;5347351;26;20345;-77
2024/04/09 12:03:54;;;;;;;7.87;1.50;;;17.60;16.00;;;;;;5346387;26;21268;-77
2024/04/09 12:06:20;;;;;;;9.32;1.50;;;17.60;16.60;;;;;;5348075;26;20333;-77
2024/04/09 12:08:46;;;;;;;4.32;1.45;;;17.60;16.10;;;;;;5351730;26;20444;-76
2024/04/09 12:11:11;;;;;;;5.10;1.35;;;17.50;15.30;;;;;;5354814;26;20337;-76
2024/04/09 12:13:38;;;;;;;11.85;1.88;;;17.70;14.60;;;;;;5353317;26;20371;-77
2024/04/09 12:16:04;;;;;;;6.75;1.80;;;17.70;14.70;;;;;;5351965;26;20377;-77
2024/04/09 12:18:31;;;;;;;5.38;1.55;;;17.60;14.70;;;;;;5347698;26;20333;-76
2024/04/09 12:20:57;;;;;;;5.15;1.30;;;17.80;13.60;;;;;;5345981;26;20341;-76
2024/04/09 12:23:23;;;;;;;7.13;1.60;;;18.20;14.40;;;;;;5345840;26;20894;-77
2024/04/09 12:25:48;;;;;;;5.90;1.50;;;18.00;14.80;;;;;;5347040;26;20358;-77
2024/04/09 12:28:14;;;;;;;6.50;1.60;;;18.20;13.20;;;;;;5344228;26;20381;-76
2024/04/09 12:30:40;;;;;;;5.90;1.47;;;17.70;13.80;;;;;;5347640;26;20875;-77
2024/04/09 12:33:06;;;;;;;8.30;1.80;;;17.60;14.90;;;;;;5350115;26;20325;-77
2024/04/09 12:35:31;;;;;;;3.83;1.10;;;17.60;13.70;;;;;;5353928;26;20442;-77
2024/04/09 12:37:57;;;;;;;6.55;1.40;;;18.10;14.90;;;;;;5349636;26;20336;-76
2024/04/09 12:40:24;;;;;;;11.70;1.80;;;;;;;;;;5348645;26;20364;-76
2024/04/09 12:42:49;;;;;;;6.25;1.40;;;17.30;13.90;;;;;;5354414;26;20337;-78
2024/04/09 12:45:15;;;;;;;8.03;1.70;;;17.40;14.50;;;;;;5355188;26;20368;-77
2024/04/09 12:47:41;;;;;;;4.82;1.60;;;17.50;14.60;;;;;;5357611;26;20352;-77